createdAt,value
2022-12-22T00:01:19.306Z,134.40
2022-12-22T00:04:06.087Z,123.30
2022-12-22T00:06:52.475Z,109.03
2022-12-22T00:09:38.748Z,109.47
2022-12-22T00:12:24.845Z,114.03
2022-12-22T00:15:11.371Z,123.67
2022-12-22T00:17:57.261Z,112.00
2022-12-22T00:20:43.211Z,112.90
2022-12-22T00:23:30.063Z,101.47
2022-12-22T00:26:17.547Z,100.23
2022-12-22T00:29:05.105Z,102.43
2022-12-22T00:31:51.457Z,95.83
2022-12-22T00:34:40.494Z,93.50
2022-12-22T00:37:31.529Z,102.87
2022-12-22T00:40:21.132Z,107.07
2022-12-22T00:43:07.715Z,108.87
2022-12-22T00:45:54.369Z,106.13
2022-12-22T00:48:44.535Z,98.47
2022-12-22T00:51:31.367Z,107.83
2022-12-22T00:54:17.615Z,106.57
2022-12-22T00:57:03.501Z,109.37
2022-12-22T00:59:49.944Z,115.17
2022-12-22T01:02:36.409Z,107.43
2022-12-22T01:05:22.728Z,113.83
2022-12-22T01:08:08.468Z,102.73
2022-12-22T01:10:54.478Z,98.30
2022-12-22T01:13:40.289Z,102.00
2022-12-22T01:16:30.789Z,103.50
2022-12-22T01:19:16.559Z,108.67
2022-12-22T01:22:02.861Z,101.60
2022-12-22T01:24:49.760Z,96.20
2022-12-22T01:27:36.029Z,86.20
2022-12-22T01:30:22.285Z,91.33
2022-12-22T01:33:08.498Z,87.77
2022-12-22T01:35:54.400Z,87.57
2022-12-22T01:38:40.626Z,88.80
2022-12-22T01:41:33.534Z,81.13
2022-12-22T01:44:19.856Z,80.23
2022-12-22T01:47:06.368Z,76.07
2022-12-22T01:49:56.374Z,72.63
2022-12-22T01:52:48.785Z,77.20
2022-12-22T01:55:37.921Z,65.30
2022-12-22T01:58:30.576Z,76.63
2022-12-22T02:01:16.515Z,74.33
2022-12-22T02:04:02.273Z,69.57
2022-12-22T02:07:00.169Z,68.47
2022-12-22T02:10:07.707Z,69.30
2022-12-22T02:13:26.240Z,72.77
2022-12-22T02:16:42.913Z,74.40
2022-12-22T02:19:53.296Z,75.17
2022-12-22T02:23:01.876Z,69.87
2022-12-22T02:25:58.172Z,79.20
2022-12-22T02:28:43.926Z,73.03
2022-12-22T02:31:30.303Z,73.07
2022-12-22T02:34:15.898Z,68.30
2022-12-22T02:37:38.376Z,75.00
2022-12-22T02:40:53.232Z,65.10
2022-12-22T02:44:08.048Z,70.27
2022-12-22T02:47:03.490Z,70.20
2022-12-22T02:50:04.731Z,77.90
2022-12-22T02:52:53.676Z,74.37
2022-12-22T02:55:40.343Z,80.53
2022-12-22T02:58:26.252Z,69.53
2022-12-22T03:01:12.409Z,77.43
2022-12-22T03:03:58.226Z,72.90
2022-12-22T03:06:44.248Z,70.27
2022-12-22T03:09:30.160Z,78.47
2022-12-22T03:12:16.377Z,67.37
2022-12-22T03:15:02.210Z,67.77
2022-12-22T03:17:48.471Z,66.07
2022-12-22T03:20:34.091Z,67.33
2022-12-22T03:23:25.237Z,64.63
2022-12-22T03:25:55.291Z,68.37
2022-12-22T03:28:28.297Z,62.30
2022-12-22T03:30:59.889Z,56.70
2022-12-22T03:33:28.170Z,51.93
2022-12-22T03:35:56.011Z,58.80
2022-12-22T03:38:23.718Z,58.57
2022-12-22T03:40:50.943Z,62.50
2022-12-22T03:43:37.952Z,57.90
2022-12-22T03:46:17.793Z,57.77
2022-12-22T03:49:09.241Z,57.13
2022-12-22T03:51:43.345Z,63.17
2022-12-22T03:54:13.443Z,56.07
2022-12-22T03:56:41.318Z,51.67
2022-12-22T03:59:09.347Z,61.83
2022-12-22T04:01:42.633Z,57.43
2022-12-22T04:04:11.569Z,54.70
2022-12-22T04:06:39.130Z,56.60
2022-12-22T04:09:06.908Z,58.07
2022-12-22T04:11:52.883Z,57.33
2022-12-22T04:14:21.227Z,57.93
2022-12-22T04:16:49.069Z,48.30
2022-12-22T04:19:17.022Z,55.57
2022-12-22T04:21:44.503Z,55.00
2022-12-22T04:24:13.036Z,48.80
2022-12-22T04:26:40.519Z,57.63
2022-12-22T04:29:08.175Z,57.03
2022-12-22T04:31:35.426Z,50.20
2022-12-22T04:34:02.988Z,52.77
2022-12-22T04:36:30.308Z,50.77
2022-12-22T04:38:57.818Z,57.73
2022-12-22T04:41:24.995Z,50.63
2022-12-22T04:43:52.457Z,51.53
2022-12-22T04:46:19.833Z,51.17
2022-12-22T04:48:47.430Z,52.77
2022-12-22T04:51:14.683Z,52.53
2022-12-22T04:53:42.384Z,52.90
2022-12-22T04:56:09.652Z,53.50
2022-12-22T04:58:37.234Z,51.90
2022-12-22T05:01:13.245Z,60.43
2022-12-22T05:03:40.962Z,57.17
2022-12-22T05:06:08.296Z,52.30
2022-12-22T05:08:36.033Z,51.63
2022-12-22T05:11:03.303Z,48.70
2022-12-22T05:13:34.951Z,48.13
2022-12-22T05:16:06.848Z,49.10
2022-12-22T05:18:36.536Z,51.93
2022-12-22T05:21:11.749Z,61.73
2022-12-22T05:23:39.760Z,52.73
2022-12-22T05:26:07.405Z,59.70
2022-12-22T05:28:35.393Z,67.93
2022-12-22T05:31:07.790Z,57.37
2022-12-22T05:33:36.094Z,63.73
2022-12-22T05:36:03.581Z,61.57
2022-12-22T05:38:31.322Z,67.77
2022-12-22T05:41:03.961Z,53.23
2022-12-22T05:43:35.205Z,58.63
2022-12-22T05:46:04.451Z,61.50
2022-12-22T05:48:38.180Z,56.17
2022-12-22T05:51:08.422Z,59.67
2022-12-22T05:53:37.015Z,52.53
2022-12-22T05:56:04.654Z,58.83
2022-12-22T05:58:32.987Z,62.00
2022-12-22T06:01:01.303Z,65.10
2022-12-22T06:03:29.567Z,61.83
2022-12-22T06:05:58.010Z,64.60
2022-12-22T06:08:26.209Z,68.23
2022-12-22T06:10:58.941Z,68.17
2022-12-22T06:13:26.769Z,75.30
2022-12-22T06:15:54.151Z,71.13
2022-12-22T06:18:21.775Z,75.63
2022-12-22T06:20:52.422Z,76.10
2022-12-22T06:23:23.411Z,73.03
2022-12-22T06:25:55.834Z,70.43
2022-12-22T06:28:23.898Z,73.63
2022-12-22T06:30:51.440Z,66.27
2022-12-22T06:33:19.264Z,72.27
2022-12-22T06:35:50.753Z,68.57
2022-12-22T06:38:21.218Z,75.50
2022-12-22T06:40:48.391Z,62.77
2022-12-22T06:43:15.843Z,66.77
2022-12-22T06:45:43.810Z,67.10
2022-12-22T06:48:12.731Z,66.87
2022-12-22T06:50:40.443Z,67.30
2022-12-22T06:53:08.672Z,58.80
2022-12-22T06:55:36.744Z,64.90
2022-12-22T06:58:04.923Z,58.03
2022-12-22T07:00:32.753Z,60.40
2022-12-22T07:03:00.815Z,56.20
2022-12-22T07:05:30.594Z,55.77
2022-12-22T07:08:04.006Z,60.17
2022-12-22T07:10:54.021Z,59.07
2022-12-22T07:13:21.701Z,59.67
2022-12-22T07:15:57.575Z,58.20
2022-12-22T07:18:29.717Z,51.30
2022-12-22T07:20:56.906Z,55.77
2022-12-22T07:23:24.859Z,51.23
2022-12-22T07:25:52.261Z,55.97
2022-12-22T07:28:21.346Z,49.33
2022-12-22T07:30:50.286Z,51.70
2022-12-22T07:33:17.935Z,43.80
2022-12-22T07:35:45.772Z,49.83
2022-12-22T07:38:13.885Z,48.93
2022-12-22T07:40:42.393Z,52.07
2022-12-22T07:43:10.944Z,48.37
2022-12-22T07:45:38.760Z,52.03
2022-12-22T07:48:26.339Z,43.63
2022-12-22T07:50:55.258Z,48.17
2022-12-22T07:53:22.867Z,48.47
2022-12-22T07:55:50.062Z,53.33
2022-12-22T07:58:17.527Z,52.33
2022-12-22T08:00:44.705Z,42.57
2022-12-22T08:03:12.292Z,43.27
2022-12-22T08:05:39.703Z,45.33
2022-12-22T08:08:07.441Z,45.63
2022-12-22T08:10:34.689Z,43.90
2022-12-22T08:13:02.283Z,42.40
2022-12-22T08:15:29.628Z,39.97
2022-12-22T08:17:57.287Z,45.23
2022-12-22T08:20:24.986Z,39.17
2022-12-22T08:22:52.431Z,41.50
2022-12-22T08:25:19.700Z,36.60
2022-12-22T08:27:53.227Z,40.93
2022-12-22T08:30:20.796Z,40.23
2022-12-22T08:32:50.974Z,36.27
2022-12-22T08:35:18.937Z,34.43
2022-12-22T08:37:47.929Z,34.23
2022-12-22T08:40:25.151Z,31.93
2022-12-22T08:42:59.322Z,33.67
2022-12-22T08:45:27.006Z,35.20
2022-12-22T08:47:54.938Z,29.23
2022-12-22T08:50:22.819Z,31.17
2022-12-22T08:52:50.769Z,31.83
2022-12-22T08:55:18.587Z,29.13
2022-12-22T08:57:55.828Z,29.33
2022-12-22T09:00:23.852Z,26.13
2022-12-22T09:02:52.160Z,26.47
2022-12-22T09:05:20.046Z,30.73
2022-12-22T09:07:48.595Z,28.97
2022-12-22T09:10:16.371Z,24.00
2022-12-22T09:12:43.950Z,23.87
2022-12-22T09:15:11.288Z,26.10
2022-12-22T09:17:38.748Z,24.80
2022-12-22T09:20:06.708Z,25.37
2022-12-22T09:22:34.273Z,25.33
2022-12-22T09:25:01.429Z,30.57
2022-12-22T09:27:30.798Z,28.40
2022-12-22T09:29:58.455Z,28.10
2022-12-22T09:32:27.371Z,30.50
2022-12-22T09:34:54.655Z,29.20
2022-12-22T09:37:22.090Z,31.10
2022-12-22T09:39:49.220Z,26.97
2022-12-22T09:42:20.369Z,32.63
2022-12-22T09:44:50.402Z,31.10
2022-12-22T09:47:36.148Z,33.37
2022-12-22T09:50:05.859Z,29.67
2022-12-22T09:52:36.580Z,33.50
2022-12-22T09:55:26.740Z,38.17
2022-12-22T09:57:54.574Z,31.77
2022-12-22T10:00:28.425Z,29.90
2022-12-22T10:03:31.535Z,28.90
2022-12-22T10:06:27.294Z,28.73
2022-12-22T10:08:54.893Z,28.53
2022-12-22T10:11:22.075Z,27.50
2022-12-22T10:13:49.527Z,26.30
2022-12-22T10:16:17.730Z,31.93
2022-12-22T10:19:11.842Z,27.60
2022-12-22T10:21:46.436Z,24.97
2022-12-22T10:24:29.071Z,22.93
2022-12-22T10:27:00.660Z,24.20
2022-12-22T10:29:29.580Z,23.40
2022-12-22T10:32:11.874Z,24.47
2022-12-22T10:35:02.884Z,23.60
2022-12-22T10:37:38.766Z,21.80
2022-12-22T10:40:21.338Z,25.57
2022-12-22T10:42:55.209Z,28.20
2022-12-22T10:45:26.697Z,34.20
2022-12-22T10:47:56.138Z,25.83
2022-12-22T10:50:24.185Z,28.47
2022-12-22T10:52:58.759Z,26.73
2022-12-22T10:55:29.471Z,25.27
2022-12-22T10:58:21.923Z,24.73
2022-12-22T11:01:10.518Z,30.33
2022-12-22T11:03:38.117Z,27.00
2022-12-22T11:06:13.138Z,27.47
2022-12-22T11:08:42.691Z,28.93
2022-12-22T11:11:32.725Z,26.13
2022-12-22T11:14:14.386Z,28.37
2022-12-22T11:16:55.111Z,30.23
2022-12-22T11:19:56.901Z,27.63
2022-12-22T11:22:49.003Z,30.73
2022-12-22T11:25:22.389Z,36.50
2022-12-22T11:28:06.059Z,34.93
2022-12-22T11:30:47.090Z,37.13
2022-12-22T11:33:38.829Z,32.53
2022-12-22T11:36:14.224Z,34.37
2022-12-22T11:39:01.029Z,32.87
2022-12-22T11:42:05.427Z,35.47
2022-12-22T11:44:47.417Z,33.93
2022-12-22T11:47:43.289Z,34.80
2022-12-22T11:50:59.994Z,33.73
2022-12-22T11:53:21.572Z,41.90
2022-12-22T11:55:59.512Z,36.23
2022-12-22T11:58:47.031Z,42.47
2022-12-22T12:01:33.447Z,37.97
2022-12-22T12:04:26.456Z,40.60
2022-12-22T12:07:12.382Z,46.40
2022-12-22T12:09:45.079Z,39.50
2022-12-22T12:12:43.002Z,39.03
2022-12-22T12:15:27.432Z,39.93
2022-12-22T12:18:13.509Z,45.57
2022-12-22T12:20:58.454Z,46.60
2022-12-22T12:23:54.845Z,45.80
2022-12-22T12:26:41.548Z,45.33
2022-12-22T12:29:24.324Z,49.70
2022-12-22T12:32:03.091Z,55.00
2022-12-22T12:34:35.175Z,51.90
2022-12-22T12:37:07.143Z,57.20
2022-12-22T12:39:59.458Z,49.87
2022-12-22T12:42:39.508Z,51.00
2022-12-22T12:45:32.021Z,51.40
2022-12-22T12:48:23.743Z,48.10
2022-12-22T12:50:52.113Z,50.53
2022-12-22T12:53:27.877Z,52.47
2022-12-22T12:56:05.309Z,52.97
2022-12-22T12:58:35.937Z,59.57
2022-12-22T13:01:33.970Z,50.53
2022-12-22T13:04:04.789Z,53.40
2022-12-22T13:06:51.322Z,56.10
2022-12-22T13:12:40.425Z,60.03
2022-12-22T13:15:30.369Z,59.50
2022-12-22T13:17:59.289Z,62.10
2022-12-22T13:20:35.624Z,58.20
2022-12-22T13:23:14.118Z,59.47
2022-12-22T13:26:00.311Z,53.67
2022-12-22T13:28:29.527Z,56.53
2022-12-22T13:31:05.156Z,60.23
2022-12-22T13:33:39.223Z,61.30
2022-12-22T13:36:15.237Z,63.17
2022-12-22T13:38:43.239Z,57.13
2022-12-22T13:41:27.181Z,60.93
2022-12-22T13:44:01.573Z,63.67
2022-12-22T13:46:30.080Z,57.90
2022-12-22T13:49:00.605Z,61.80
2022-12-22T13:51:32.666Z,57.27
2022-12-22T13:54:09.127Z,58.60
2022-12-22T13:56:46.191Z,61.03
2022-12-22T13:59:35.558Z,62.63
2022-12-22T14:02:09.172Z,62.77
2022-12-22T14:04:42.206Z,75.43
2022-12-22T14:07:18.512Z,63.13
2022-12-22T14:09:54.979Z,68.10
2022-12-22T14:12:46.253Z,71.93
2022-12-22T14:15:20.231Z,65.10
2022-12-22T14:17:52.958Z,70.30
2022-12-22T14:20:37.272Z,68.27
2022-12-22T14:23:26.753Z,68.47
2022-12-22T14:25:56.524Z,66.17
2022-12-22T14:28:28.252Z,69.77
2022-12-22T14:30:58.975Z,66.10
2022-12-22T14:33:27.405Z,71.53
2022-12-22T14:36:40.591Z,68.80
2022-12-22T14:39:22.685Z,65.90
2022-12-22T14:41:54.181Z,74.30
2022-12-22T14:44:28.164Z,71.10
2022-12-22T14:47:08.519Z,70.20
2022-12-22T14:49:43.494Z,67.10
2022-12-22T14:52:37.840Z,69.23
2022-12-22T14:55:20.965Z,71.53
2022-12-22T14:57:54.649Z,73.37
2022-12-22T15:00:22.674Z,83.40
2022-12-22T15:02:53.755Z,85.10
2022-12-22T15:05:38.159Z,78.53
2022-12-22T15:08:09.631Z,84.27
2022-12-22T15:10:42.164Z,78.73
2022-12-22T15:13:21.812Z,91.00
2022-12-22T15:15:51.794Z,85.80
2022-12-22T15:18:25.640Z,78.43
2022-12-22T15:20:55.092Z,80.60
2022-12-22T15:23:23.143Z,93.97
2022-12-22T15:25:50.868Z,79.03
2022-12-22T15:28:18.660Z,83.53
2022-12-22T15:30:46.645Z,99.33
2022-12-22T15:33:16.308Z,84.87
2022-12-22T15:35:44.878Z,81.53
2022-12-22T15:38:19.641Z,88.77
2022-12-22T15:40:48.127Z,90.63
2022-12-22T15:43:37.211Z,111.87
2022-12-22T15:46:06.430Z,96.20
2022-12-22T15:48:39.762Z,92.97
2022-12-22T15:51:15.701Z,99.07
2022-12-22T15:53:43.507Z,108.60
2022-12-22T15:56:17.792Z,88.80
2022-12-22T15:58:46.836Z,80.77
2022-12-22T16:01:14.593Z,86.20
2022-12-22T16:03:42.370Z,79.77
2022-12-22T16:06:19.902Z,83.53
2022-12-22T16:08:51.324Z,90.30
2022-12-22T16:11:19.531Z,92.37
2022-12-22T16:13:49.576Z,90.13
2022-12-22T16:16:17.831Z,85.43
2022-12-22T16:18:45.788Z,81.67
2022-12-22T16:21:19.837Z,90.93
2022-12-22T16:23:49.136Z,83.37
2022-12-22T16:26:19.662Z,82.23
2022-12-22T16:28:48.122Z,82.70
2022-12-22T16:31:21.951Z,89.27
2022-12-22T16:33:50.682Z,89.50
2022-12-22T16:36:18.905Z,79.23
2022-12-22T16:38:47.846Z,85.63
2022-12-22T16:41:23.746Z,84.60
2022-12-22T16:43:53.750Z,86.57
2022-12-22T16:46:23.133Z,83.30
2022-12-22T16:49:00.050Z,82.17
2022-12-22T16:51:34.872Z,73.17
2022-12-22T16:54:03.028Z,82.00
2022-12-22T16:56:31.855Z,80.37
2022-12-22T16:59:01.130Z,81.00
2022-12-22T17:01:32.333Z,82.03
2022-12-22T17:04:30.658Z,83.03
2022-12-22T17:07:00.842Z,74.37
2022-12-22T17:09:46.840Z,77.67
2022-12-22T17:12:30.212Z,92.83
2022-12-22T17:14:59.833Z,87.50
2022-12-22T17:17:34.135Z,88.93
2022-12-22T17:20:06.858Z,90.47
2022-12-22T17:22:35.970Z,93.23
2022-12-22T17:25:08.675Z,88.23
2022-12-22T17:27:36.895Z,86.17
2022-12-22T17:30:18.473Z,80.87
2022-12-22T17:32:48.238Z,83.43
2022-12-22T17:35:19.598Z,86.60
2022-12-22T17:37:50.534Z,85.10
2022-12-22T17:40:27.974Z,79.73
2022-12-22T17:42:59.278Z,86.07
2022-12-22T17:45:29.909Z,83.30
2022-12-22T17:47:58.968Z,85.60
2022-12-22T17:50:28.925Z,80.57
2022-12-22T17:52:57.527Z,76.37
2022-12-22T17:56:05.850Z,78.07
2022-12-22T17:58:17.650Z,79.83
2022-12-22T18:00:47.120Z,74.83
2022-12-22T18:03:16.773Z,74.60
2022-12-22T18:05:48.971Z,86.80
2022-12-22T18:08:20.796Z,70.53
2022-12-22T18:10:49.823Z,84.33
2022-12-22T18:13:23.067Z,75.20
2022-12-22T18:15:53.506Z,80.50
2022-12-22T18:18:22.336Z,70.33
2022-12-22T18:21:06.259Z,68.60
2022-12-22T18:23:38.489Z,74.33
2022-12-22T18:26:11.824Z,82.20
2022-12-22T18:28:41.003Z,86.83
2022-12-22T18:31:10.739Z,74.23
2022-12-22T18:33:39.480Z,77.90
2022-12-22T18:36:18.890Z,103.17
2022-12-22T18:38:48.679Z,78.63
2022-12-22T18:41:22.644Z,74.37
2022-12-22T18:43:50.749Z,69.63
2022-12-22T18:46:20.003Z,74.63
2022-12-22T18:48:49.023Z,76.83
2022-12-22T18:51:20.572Z,72.63
2022-12-22T18:53:51.728Z,82.47
2022-12-22T18:56:20.966Z,67.63
2022-12-22T18:58:48.959Z,83.47
2022-12-22T19:01:27.670Z,74.00
2022-12-22T19:03:56.793Z,74.23
2022-12-22T19:06:25.821Z,73.43
2022-12-22T19:08:53.517Z,63.73
2022-12-22T19:11:26.958Z,64.03
2022-12-22T19:13:54.587Z,82.13
2022-12-22T19:16:26.459Z,68.60
2022-12-22T19:18:54.644Z,75.90
2022-12-22T19:21:23.484Z,69.57
2022-12-22T19:23:51.288Z,72.43
2022-12-22T19:26:26.573Z,73.63
2022-12-22T19:29:00.356Z,67.63
2022-12-22T19:31:35.281Z,70.93
2022-12-22T19:34:10.581Z,84.90
2022-12-22T19:36:38.485Z,59.17
2022-12-22T19:39:06.316Z,76.13
2022-12-22T19:41:37.915Z,67.60
2022-12-22T19:44:06.290Z,68.30
2022-12-22T19:46:35.782Z,65.40
2022-12-22T19:49:04.528Z,70.47
2022-12-22T19:51:32.828Z,80.13
2022-12-22T19:54:00.852Z,72.93
2022-12-22T19:56:32.509Z,72.23
2022-12-22T19:59:01.753Z,64.60
2022-12-22T20:01:30.437Z,59.63
2022-12-22T20:03:58.992Z,66.00
2022-12-22T20:06:27.536Z,57.50
2022-12-22T20:09:02.268Z,57.73
2022-12-22T20:11:31.092Z,54.83
2022-12-22T20:14:00.115Z,56.77
2022-12-22T20:16:28.480Z,51.47
2022-12-22T20:18:56.287Z,54.20
2022-12-22T20:21:30.211Z,53.73
2022-12-22T20:23:59.927Z,42.57
2022-12-22T20:26:28.289Z,48.63
2022-12-22T20:28:56.577Z,50.90
2022-12-22T20:31:26.244Z,53.20
2022-12-22T20:33:55.613Z,49.97
2022-12-22T20:36:32.963Z,49.90
2022-12-22T20:39:02.398Z,48.73
2022-12-22T20:41:30.755Z,44.60
2022-12-22T20:43:59.321Z,56.77
2022-12-22T20:46:29.918Z,62.73
2022-12-22T20:53:51.332Z,61.03
2022-12-22T20:56:28.640Z,75.00
2022-12-22T20:58:58.547Z,75.10
2022-12-22T21:01:28.771Z,72.90
2022-12-22T21:03:56.699Z,60.13
2022-12-22T21:06:31.707Z,74.97
2022-12-22T21:09:01.023Z,60.83
2022-12-22T21:11:31.607Z,67.77
2022-12-22T21:14:00.313Z,78.97
2022-12-22T21:16:32.684Z,74.13
2022-12-22T21:19:02.158Z,74.37
2022-12-22T21:21:31.822Z,62.23
2022-12-22T21:24:00.668Z,71.63
2022-12-22T21:26:41.029Z,80.07
2022-12-22T21:29:19.077Z,88.07
2022-12-22T21:31:47.786Z,76.47
2022-12-22T21:34:16.828Z,59.57
2022-12-22T21:36:49.172Z,62.87
2022-12-22T21:39:26.581Z,86.73
2022-12-22T21:42:00.905Z,70.23
2022-12-22T21:44:33.360Z,71.00
2022-12-22T21:47:03.596Z,65.00
2022-12-22T21:49:34.350Z,55.57
2022-12-22T21:52:03.043Z,64.83
2022-12-22T21:54:32.566Z,67.87
2022-12-22T21:57:02.257Z,67.13
2022-12-22T21:59:31.403Z,99.63
2022-12-22T22:02:01.200Z,86.67
2022-12-22T22:04:29.760Z,62.63
2022-12-22T22:06:58.617Z,100.13
2022-12-22T22:09:26.943Z,88.13
2022-12-22T22:12:15.893Z,82.10
2022-12-22T22:14:44.215Z,94.73
2022-12-22T22:17:13.436Z,93.33
2022-12-22T22:19:41.527Z,106.30
2022-12-22T22:22:09.556Z,76.97
2022-12-22T22:24:38.484Z,64.57
2022-12-22T22:27:07.757Z,66.37
2022-12-22T22:29:35.604Z,68.33
2022-12-22T22:32:04.162Z,62.57
2022-12-22T22:34:32.760Z,66.40
2022-12-22T22:37:01.270Z,59.50
2022-12-22T22:39:29.345Z,63.77
2022-12-22T22:41:57.514Z,73.90
2022-12-22T22:44:25.357Z,94.77
2022-12-22T22:46:53.555Z,75.97
2022-12-22T22:49:28.097Z,63.50
2022-12-22T22:51:56.945Z,74.53
2022-12-22T22:54:24.855Z,59.90
2022-12-22T22:56:53.772Z,51.30
2022-12-22T22:59:21.550Z,56.70
2022-12-22T23:01:49.441Z,49.63
2022-12-22T23:04:17.485Z,64.10
2022-12-22T23:06:45.641Z,60.10
2022-12-22T23:09:13.848Z,55.80
2022-12-22T23:11:41.821Z,50.57
2022-12-22T23:14:09.671Z,47.13
2022-12-22T23:16:38.706Z,52.13
2022-12-22T23:19:07.052Z,48.63
2022-12-22T23:21:35.420Z,49.17
2022-12-22T23:24:03.091Z,53.53
2022-12-22T23:26:31.498Z,49.37
2022-12-22T23:29:03.256Z,51.23
2022-12-22T23:31:33.086Z,54.83
2022-12-22T23:34:00.979Z,58.03
2022-12-22T23:36:28.794Z,55.50
2022-12-22T23:38:57.037Z,51.13
2022-12-22T23:41:25.157Z,58.43
2022-12-22T23:43:54.356Z,59.77
2022-12-22T23:46:23.048Z,56.53
2022-12-22T23:48:55.701Z,63.17
2022-12-22T23:51:26.935Z,59.13
2022-12-22T23:53:56.207Z,65.80
2022-12-22T23:56:24.536Z,60.70
2022-12-22T23:58:54.952Z,97.47
